Time,TemperatureF,DewpointF,PressureIn,WindDirection,WindDirectionDegrees,WindSpeedMPH,WindSpeedGustMPH,Humidity,HourlyPrecipIn,Conditions,Clouds,dailyrainin,SolarRadiationWatts/m^2,SoftwareType,DateUTC
2013-01-01 00:03:00,36.0,16.0,-100.00,SW,226,4.0,10.0,43,0.01,,,-99.99,0.000000,,2013-01-01 05:03:00,
2013-01-01 00:12:00,36.0,16.0,-100.00,SW,226,4.0,10.0,43,0.01,,,-99.99,0.000000,,2013-01-01 05:12:00,
2013-01-01 00:33:00,36.0,13.0,-100.00,SW,228,3.0,7.0,38,0.00,,,-99.99,0.000000,,2013-01-01 05:33:00,
2013-01-01 00:42:00,36.0,13.0,-100.00,SW,228,3.0,7.0,38,0.00,,,-99.99,0.000000,,2013-01-01 05:42:00,
2013-01-01 00:53:00,36.0,13.0,-100.00,SW,228,3.0,7.0,38,0.00,,,-99.99,0.000000,,2013-01-01 05:53:00,
2013-01-01 01:02:00,36.0,13.0,-100.00,SW,228,3.0,7.0,38,0.00,,,-99.99,0.000000,,2013-01-01 06:02:00,
2013-01-01 01:12:00,36.0,13.0,-100.00,SW,228,3.0,7.0,38,0.00,,,-99.99,0.000000,,2013-01-01 06:12:00,
2013-01-01 01:33:00,35.0,14.0,-100.00,NNW,333,5.0,12.0,41,0.00,,,-99.99,0.000000,,2013-01-01 06:33:00,
2013-01-01 01:43:00,35.0,14.0,-100.00,NNW,333,5.0,12.0,41,0.00,,,-99.99,0.000000,,2013-01-01 06:43:00,
2013-01-01 01:52:00,35.0,14.0,-100.00,NNW,333,5.0,12.0,41,0.00,,,-99.99,0.000000,,2013-01-01 06:52:00,
2013-01-01 02:02:00,35.0,14.0,-100.00,NNW,333,5.0,12.0,41,0.00,,,-99.99,0.000000,,2013-01-01 07:02:00,
2013-01-01 02:12:00,35.0,14.0,-100.00,NNW,333,5.0,12.0,41,0.00,,,-99.99,0.000000,,2013-01-01 07:12:00,
2013-01-01 02:32:00,33.0,21.0,-100.00,NW,322,4.0,12.0,61,0.00,,,-99.99,0.000000,,2013-01-01 07:32:00,
2013-01-01 02:42:00,33.0,21.0,-100.00,NW,322,4.0,12.0,61,0.00,,,-99.99,0.000000,,2013-01-01 07:42:00,
2013-01-01 02:53:00,33.0,21.0,-100.00,NW,322,4.0,12.0,61,0.00,,,-99.99,0.000000,,2013-01-01 07:53:00,
2013-01-01 03:02:00,33.0,21.0,-100.00,NW,322,4.0,12.0,61,0.00,,,-99.99,0.000000,,2013-01-01 08:02:00,
2013-01-01 03:12:00,33.0,21.0,-100.00,NW,322,4.0,12.0,61,0.00,,,-99.99,0.000000,,2013-01-01 08:12:00,
2013-01-01 03:42:00,31.0,26.0,-100.00,WNW,286,3.0,11.0,80,0.00,,,-99.99,0.000000,,2013-01-01 08:42:00,
2013-01-01 03:53:00,31.0,26.0,-100.00,WNW,286,3.0,11.0,80,0.00,,,-99.99,0.000000,,2013-01-01 08:53:00,
2013-01-01 04:02:00,31.0,26.0,-100.00,WNW,286,3.0,11.0,80,0.00,,,-99.99,0.000000,,2013-01-01 09:02:00,
2013-01-01 04:12:00,31.0,26.0,-100.00,WNW,286,3.0,11.0,80,0.00,,,-99.99,0.000000,,2013-01-01 09:12:00,
2013-01-01 04:32:00,31.0,28.0,-100.00,West,265,3.0,6.0,90,0.00,,,-99.99,0.000000,,2013-01-01 09:32:00,
2013-01-01 04:42:00,31.0,28.0,-100.00,West,265,3.0,6.0,90,0.00,,,-99.99,0.000000,,2013-01-01 09:42:00,
2013-01-01 04:52:00,31.0,28.0,-100.00,West,265,3.0,6.0,90,0.00,,,-99.99,0.000000,,2013-01-01 09:52:00,
2013-01-01 05:02:00,31.0,28.0,-100.00,West,265,3.0,6.0,90,0.00,,,-99.99,0.000000,,2013-01-01 10:02:00,
2013-01-01 05:12:00,31.0,28.0,-100.00,West,265,3.0,6.0,90,0.00,,,-99.99,0.000000,,2013-01-01 10:12:00,
2013-01-01 05:33:00,31.0,29.0,-100.00,South,180,2.0,6.0,93,0.00,,,-99.99,0.000000,,2013-01-01 10:33:00,
2013-01-01 05:43:00,31.0,29.0,-100.00,South,180,2.0,6.0,93,0.00,,,-99.99,0.000000,,2013-01-01 10:43:00,
2013-01-01 05:53:00,31.0,29.0,-100.00,South,180,2.0,6.0,93,0.00,,,-99.99,0.000000,,2013-01-01 10:53:00,
2013-01-01 06:02:00,31.0,29.0,-100.00,South,180,2.0,6.0,93,0.00,,,-99.99,0.000000,,2013-01-01 11:02:00,
2013-01-01 06:12:00,31.0,29.0,-100.00,South,180,2.0,6.0,93,0.00,,,-99.99,0.000000,,2013-01-01 11:12:00,
2013-01-01 06:33:00,31.0,29.0,-100.00,South,185,2.0,3.0,94,0.00,,,-99.99,0.000000,,2013-01-01 11:33:00,
2013-01-01 06:43:00,31.0,29.0,-100.00,South,185,2.0,3.0,94,0.00,,,-99.99,0.000000,,2013-01-01 11:43:00,
2013-01-01 06:53:00,31.0,29.0,-100.00,South,185,2.0,3.0,94,0.00,,,-99.99,0.000000,,2013-01-01 11:53:00,
2013-01-01 07:03:00,31.0,29.0,-100.00,South,185,2.0,3.0,94,0.00,,,-99.99,0.000000,,2013-01-01 12:03:00,
2013-01-01 07:12:00,31.0,29.0,-100.00,South,185,2.0,3.0,94,0.00,,,-99.99,0.000000,,2013-01-01 12:12:00,
2013-01-01 07:43:00,31.0,30.0,-100.00,West,265,2.0,4.0,95,0.00,,,-99.99,0.000000,,2013-01-01 12:43:00,
2013-01-01 07:53:00,31.0,30.0,-100.00,West,265,2.0,4.0,95,0.00,,,-99.99,0.000000,,2013-01-01 12:53:00,
2013-01-01 08:03:00,31.0,30.0,-100.00,West,265,2.0,4.0,95,0.00,,,-99.99,0.000000,,2013-01-01 13:03:00,
2013-01-01 08:12:00,31.0,30.0,-100.00,West,265,2.0,4.0,95,0.00,,,-99.99,0.000000,,2013-01-01 13:12:00,
2013-01-01 08:33:00,34.0,33.0,-100.00,SW,235,5.0,10.0,95,0.00,,,-99.99,2.000000,,2013-01-01 13:33:00,
2013-01-01 08:43:00,34.0,33.0,-100.00,SW,235,5.0,10.0,95,0.00,,,-99.99,2.000000,,2013-01-01 13:43:00,
2013-01-01 08:53:00,34.0,33.0,-100.00,SW,235,5.0,10.0,95,0.00,,,-99.99,2.000000,,2013-01-01 13:53:00,
2013-01-01 09:02:00,34.0,33.0,-100.00,SW,235,5.0,10.0,95,0.00,,,-99.99,2.000000,,2013-01-01 14:02:00,
2013-01-01 09:12:00,34.0,33.0,-100.00,SW,235,5.0,10.0,95,0.00,,,-99.99,2.000000,,2013-01-01 14:12:00,
2013-01-01 09:43:00,38.0,37.0,-100.00,SW,233,7.0,14.0,96,0.04,,,-99.99,14.000000,,2013-01-01 14:43:00,
2013-01-01 09:53:00,38.0,37.0,-100.00,SW,233,7.0,14.0,96,0.04,,,-99.99,14.000000,,2013-01-01 14:53:00,
2013-01-01 10:03:00,38.0,37.0,-100.00,SW,233,7.0,14.0,96,0.04,,,-99.99,14.000000,,2013-01-01 15:03:00,
2013-01-01 10:12:00,38.0,37.0,-100.00,SW,233,7.0,14.0,96,0.04,,,-99.99,14.000000,,2013-01-01 15:12:00,
2013-01-01 10:33:00,38.0,37.0,-100.00,NW,310,4.0,14.0,96,0.08,,,-99.99,40.000000,,2013-01-01 15:33:00,
2013-01-01 10:43:00,38.0,37.0,-100.00,NW,310,4.0,14.0,96,0.08,,,-99.99,40.000000,,2013-01-01 15:43:00,
2013-01-01 10:53:00,38.0,37.0,-100.00,NW,310,4.0,14.0,96,0.08,,,-99.99,40.000000,,2013-01-01 15:53:00,
2013-01-01 11:02:00,38.0,37.0,-100.00,NW,310,4.0,14.0,96,0.08,,,-99.99,40.000000,,2013-01-01 16:02:00,
2013-01-01 11:12:00,38.0,37.0,-100.00,NW,310,4.0,14.0,96,0.08,,,-99.99,40.000000,,2013-01-01 16:12:00,
2013-01-01 11:33:00,36.0,35.0,-100.00,WNW,286,5.0,14.0,96,0.05,,,-99.99,57.000000,,2013-01-01 16:33:00,
2013-01-01 11:43:00,36.0,35.0,-100.00,WNW,286,5.0,14.0,96,0.05,,,-99.99,57.000000,,2013-01-01 16:43:00,
2013-01-01 11:53:00,36.0,35.0,-100.00,WNW,286,5.0,14.0,96,0.05,,,-99.99,57.000000,,2013-01-01 16:53:00,
2013-01-01 12:02:00,36.0,35.0,-100.00,WNW,286,5.0,14.0,96,0.05,,,-99.99,57.000000,,2013-01-01 17:02:00,
2013-01-01 12:12:00,36.0,35.0,-100.00,WNW,286,5.0,14.0,96,0.05,,,-99.99,57.000000,,2013-01-01 17:12:00,
2013-01-01 12:33:00,35.0,34.0,-100.00,WNW,297,5.0,11.0,96,0.03,,,-99.99,44.000000,,2013-01-01 17:33:00,
2013-01-01 12:43:00,35.0,34.0,-100.00,WNW,297,5.0,11.0,96,0.03,,,-99.99,44.000000,,2013-01-01 17:43:00,
2013-01-01 12:53:00,35.0,34.0,-100.00,WNW,297,5.0,11.0,96,0.03,,,-99.99,44.000000,,2013-01-01 17:53:00,
2013-01-01 13:03:00,35.0,34.0,-100.00,WNW,297,5.0,11.0,96,0.03,,,-99.99,44.000000,,2013-01-01 18:03:00,
2013-01-01 13:13:00,35.0,34.0,-100.00,WNW,297,5.0,11.0,96,0.03,,,-99.99,44.000000,,2013-01-01 18:13:00,
2013-01-01 13:33:00,36.0,35.0,-100.00,NW,313,6.0,12.0,96,0.04,,,-99.99,47.000000,,2013-01-01 18:33:00,
2013-01-01 13:43:00,36.0,35.0,-100.00,NW,313,6.0,12.0,96,0.04,,,-99.99,47.000000,,2013-01-01 18:43:00,
2013-01-01 13:53:00,36.0,35.0,-100.00,NW,313,6.0,12.0,96,0.04,,,-99.99,47.000000,,2013-01-01 18:53:00,
2013-01-01 14:02:00,36.0,35.0,-100.00,NW,313,6.0,12.0,96,0.04,,,-99.99,47.000000,,2013-01-01 19:02:00,
2013-01-01 14:12:00,36.0,35.0,-100.00,NW,313,6.0,12.0,96,0.04,,,-99.99,47.000000,,2013-01-01 19:12:00,
2013-01-01 14:33:00,36.0,34.0,-100.00,NW,324,5.0,11.0,94,0.04,,,-99.99,68.000000,,2013-01-01 19:33:00,
2013-01-01 14:43:00,36.0,34.0,-100.00,NW,324,5.0,11.0,94,0.04,,,-99.99,68.000000,,2013-01-01 19:43:00,
2013-01-01 14:53:00,36.0,34.0,-100.00,NW,324,5.0,11.0,94,0.04,,,-99.99,68.000000,,2013-01-01 19:53:00,
2013-01-01 15:02:00,36.0,34.0,-100.00,NW,324,5.0,11.0,94,0.04,,,-99.99,68.000000,,2013-01-01 20:02:00,
2013-01-01 15:13:00,36.0,34.0,-100.00,NW,324,5.0,11.0,94,0.04,,,-99.99,68.000000,,2013-01-01 20:13:00,
2013-01-01 15:43:00,34.0,33.0,-100.00,NW,310,4.0,14.0,95,0.02,,,-99.99,23.000000,,2013-01-01 20:43:00,
2013-01-01 15:53:00,34.0,33.0,-100.00,NW,310,4.0,14.0,95,0.02,,,-99.99,23.000000,,2013-01-01 20:53:00,
2013-01-01 16:03:00,34.0,33.0,-100.00,NW,310,4.0,14.0,95,0.02,,,-99.99,23.000000,,2013-01-01 21:03:00,
2013-01-01 16:13:00,34.0,33.0,-100.00,NW,310,4.0,14.0,95,0.02,,,-99.99,23.000000,,2013-01-01 21:13:00,
2013-01-01 16:33:00,34.0,33.0,-100.00,NW,319,3.0,9.0,96,0.01,,,-99.99,13.000000,,2013-01-01 21:33:00,
2013-01-01 16:43:00,34.0,33.0,-100.00,NW,319,3.0,9.0,96,0.01,,,-99.99,13.000000,,2013-01-01 21:43:00,
2013-01-01 16:53:00,34.0,33.0,-100.00,NW,319,3.0,9.0,96,0.01,,,-99.99,13.000000,,2013-01-01 21:53:00,
2013-01-01 17:03:00,34.0,33.0,-100.00,NW,319,3.0,9.0,96,0.01,,,-99.99,13.000000,,2013-01-01 22:03:00,
2013-01-01 17:12:00,34.0,33.0,-100.00,NW,319,3.0,9.0,96,0.01,,,-99.99,13.000000,,2013-01-01 22:12:00,
2013-01-01 17:33:00,33.0,32.0,-100.00,West,269,2.0,7.0,96,0.01,,,-99.99,3.000000,,2013-01-01 22:33:00,
2013-01-01 17:43:00,33.0,32.0,-100.00,West,269,2.0,7.0,96,0.01,,,-99.99,3.000000,,2013-01-01 22:43:00,
2013-01-01 17:53:00,33.0,32.0,-100.00,West,269,2.0,7.0,96,0.01,,,-99.99,3.000000,,2013-01-01 22:53:00,
2013-01-01 18:03:00,33.0,32.0,-100.00,West,269,2.0,7.0,96,0.01,,,-99.99,3.000000,,2013-01-01 23:03:00,
2013-01-01 18:12:00,33.0,32.0,-100.00,West,269,2.0,7.0,96,0.01,,,-99.99,3.000000,,2013-01-01 23:12:00,
2013-01-01 18:33:00,32.0,31.0,-100.00,WSW,257,3.0,6.0,96,0.00,,,-99.99,0.000000,,2013-01-01 23:33:00,
2013-01-01 18:42:00,32.0,31.0,-100.00,WSW,257,3.0,6.0,96,0.00,,,-99.99,0.000000,,2013-01-01 23:42:00,
2013-01-01 18:53:00,32.0,31.0,-100.00,WSW,257,3.0,6.0,96,0.00,,,-99.99,0.000000,,2013-01-01 23:53:00,
2013-01-01 19:03:00,32.0,31.0,-100.00,WSW,257,3.0,6.0,96,0.00,,,-99.99,0.000000,,2013-01-02 00:03:00,
2013-01-01 19:12:00,32.0,31.0,-100.00,WSW,257,3.0,6.0,96,0.00,,,-99.99,0.000000,,2013-01-02 00:12:00,
2013-01-01 19:33:00,32.0,31.0,-100.00,WSW,251,2.0,6.0,96,0.01,,,0.34,0.000000,,2013-01-02 00:33:00,
2013-01-01 19:43:00,32.0,31.0,-100.00,WSW,251,2.0,6.0,96,0.01,,,0.34,0.000000,,2013-01-02 00:43:00,
2013-01-01 19:53:00,32.0,31.0,-100.00,WSW,251,2.0,6.0,96,0.01,,,0.34,0.000000,,2013-01-02 00:53:00,
2013-01-01 20:02:00,32.0,31.0,-100.00,WSW,251,2.0,6.0,96,0.01,,,0.34,0.000000,,2013-01-02 01:02:00,
2013-01-01 20:12:00,32.0,31.0,-100.00,WSW,251,2.0,6.0,96,0.01,,,0.34,0.000000,,2013-01-02 01:12:00,
2013-01-01 20:43:00,32.0,31.0,-100.00,North,349,3.0,5.0,97,0.00,,,0.34,0.000000,,2013-01-02 01:43:00,
2013-01-01 20:53:00,32.0,31.0,-100.00,North,349,3.0,5.0,97,0.00,,,0.34,0.000000,,2013-01-02 01:53:00,
2013-01-01 21:02:00,32.0,31.0,-100.00,North,349,3.0,5.0,97,0.00,,,0.34,0.000000,,2013-01-02 02:02:00,
2013-01-01 21:12:00,32.0,31.0,-100.00,North,349,3.0,5.0,97,0.00,,,0.34,0.000000,,2013-01-02 02:12:00,
2013-01-01 21:32:00,31.0,30.0,-100.00,NNW,328,3.0,7.0,97,0.00,,,0.34,0.000000,,2013-01-02 02:32:00,
2013-01-01 21:43:00,31.0,30.0,-100.00,NNW,328,3.0,7.0,97,0.00,,,0.34,0.000000,,2013-01-02 02:43:00,
2013-01-01 21:53:00,31.0,30.0,-100.00,NNW,328,3.0,7.0,97,0.00,,,0.34,0.000000,,2013-01-02 02:53:00,
2013-01-01 22:02:00,31.0,30.0,-100.00,NNW,328,3.0,7.0,97,0.00,,,0.34,0.000000,,2013-01-02 03:02:00,
2013-01-01 22:12:00,31.0,30.0,-100.00,NNW,328,3.0,7.0,97,0.00,,,0.34,0.000000,,2013-01-02 03:12:00,
2013-01-01 22:42:00,31.0,30.0,-100.00,SSE,158,0.0,3.0,97,0.00,,,0.34,0.000000,,2013-01-02 03:42:00,
2013-01-01 22:53:00,31.0,30.0,-100.00,SSE,158,0.0,3.0,97,0.00,,,0.34,0.000000,,2013-01-02 03:53:00,
2013-01-01 23:03:00,31.0,30.0,-100.00,SSE,158,0.0,3.0,97,0.00,,,0.34,0.000000,,2013-01-02 04:03:00,
2013-01-01 23:12:00,31.0,30.0,-100.00,SSE,158,0.0,3.0,97,0.00,,,0.34,0.000000,,2013-01-02 04:12:00,
2013-01-01 23:33:00,31.0,30.0,-100.00,West,265,1.0,4.0,97,0.00,,,0.33,0.000000,,2013-01-02 04:33:00,
2013-01-01 23:42:00,31.0,30.0,-100.00,West,265,1.0,4.0,97,0.00,,,0.33,0.000000,,2013-01-02 04:42:00,
2013-01-01 23:53:00,31.0,30.0,-100.00,West,265,1.0,4.0,97,0.00,,,0.33,0.000000,,2013-01-02 04:53:00,